sensor_id;sensor_type;location;lat;lon;timestamp;P1;durP1;ratioP1;P2;durP2;ratioP2
12218;SDS011;6172;42.646;23.344;2023-01-08T00:00:16;20.63;;;10.90;;
12218;SDS011;6172;42.646;23.344;2023-01-08T00:02:47;21.87;;;11.37;;
12218;SDS011;6172;42.646;23.344;2023-01-08T00:05:15;21.63;;;10.30;;
12218;SDS011;6172;42.646;23.344;2023-01-08T00:07:42;21.00;;;10.10;;
12218;SDS011;6172;42.646;23.344;2023-01-08T00:10:09;21.83;;;10.47;;
12218;SDS011;6172;42.646;23.344;2023-01-08T00:12:36;16.97;;;9.80;;
12218;SDS011;6172;42.646;23.344;2023-01-08T00:15:04;20.70;;;9.60;;
12218;SDS011;6172;42.646;23.344;2023-01-08T00:17:32;20.20;;;10.27;;
12218;SDS011;6172;42.646;23.344;2023-01-08T00:20:02;18.83;;;9.90;;
12218;SDS011;6172;42.646;23.344;2023-01-08T00:22:30;17.70;;;9.50;;
12218;SDS011;6172;42.646;23.344;2023-01-08T00:24:57;17.67;;;9.83;;
12218;SDS011;6172;42.646;23.344;2023-01-08T00:27:24;19.97;;;10.30;;
12218;SDS011;6172;42.646;23.344;2023-01-08T00:29:50;20.27;;;11.60;;
12218;SDS011;6172;42.646;23.344;2023-01-08T00:32:17;27.70;;;13.77;;
12218;SDS011;6172;42.646;23.344;2023-01-08T00:34:45;25.40;;;13.40;;
12218;SDS011;6172;42.646;23.344;2023-01-08T00:37:14;27.40;;;13.77;;
12218;SDS011;6172;42.646;23.344;2023-01-08T00:39:43;29.13;;;13.43;;
12218;SDS011;6172;42.646;23.344;2023-01-08T00:42:10;21.17;;;12.10;;
12218;SDS011;6172;42.646;23.344;2023-01-08T00:44:37;22.33;;;13.17;;
12218;SDS011;6172;42.646;23.344;2023-01-08T00:47:04;26.17;;;12.50;;
12218;SDS011;6172;42.646;23.344;2023-01-08T00:49:31;28.40;;;12.43;;
12218;SDS011;6172;42.646;23.344;2023-01-08T00:51:58;25.27;;;12.37;;
12218;SDS011;6172;42.646;23.344;2023-01-08T00:54:27;30.43;;;13.53;;
12218;SDS011;6172;42.646;23.344;2023-01-08T00:56:55;23.43;;;13.23;;
12218;SDS011;6172;42.646;23.344;2023-01-08T00:59:21;27.20;;;13.77;;
12218;SDS011;6172;42.646;23.344;2023-01-08T01:01:48;27.77;;;14.70;;
12218;SDS011;6172;42.646;23.344;2023-01-08T01:04:16;23.17;;;13.23;;
12218;SDS011;6172;42.646;23.344;2023-01-08T01:06:43;27.13;;;13.67;;
12218;SDS011;6172;42.646;23.344;2023-01-08T01:09:10;27.57;;;14.27;;
12218;SDS011;6172;42.646;23.344;2023-01-08T01:11:39;33.13;;;14.53;;
12218;SDS011;6172;42.646;23.344;2023-01-08T01:14:06;29.23;;;14.40;;
12218;SDS011;6172;42.646;23.344;2023-01-08T01:16:34;29.63;;;15.17;;
12218;SDS011;6172;42.646;23.344;2023-01-08T01:19:01;30.77;;;14.80;;
12218;SDS011;6172;42.646;23.344;2023-01-08T01:21:28;26.13;;;13.87;;
12218;SDS011;6172;42.646;23.344;2023-01-08T01:23:57;31.57;;;14.93;;
12218;SDS011;6172;42.646;23.344;2023-01-08T01:26:26;34.17;;;16.20;;
12218;SDS011;6172;42.646;23.344;2023-01-08T01:28:56;34.13;;;15.50;;
12218;SDS011;6172;42.646;23.344;2023-01-08T01:31:24;32.57;;;15.20;;
12218;SDS011;6172;42.646;23.344;2023-01-08T01:33:54;38.77;;;16.23;;
12218;SDS011;6172;42.646;23.344;2023-01-08T01:36:21;33.57;;;16.50;;
12218;SDS011;6172;42.646;23.344;2023-01-08T01:38:50;34.73;;;15.93;;
12218;SDS011;6172;42.646;23.344;2023-01-08T01:41:22;34.20;;;15.67;;
12218;SDS011;6172;42.646;23.344;2023-01-08T01:43:51;29.87;;;15.33;;
12218;SDS011;6172;42.646;23.344;2023-01-08T01:46:21;27.63;;;14.60;;
12218;SDS011;6172;42.646;23.344;2023-01-08T01:48:54;36.87;;;15.70;;
12218;SDS011;6172;42.646;23.344;2023-01-08T01:51:24;31.90;;;14.97;;
12218;SDS011;6172;42.646;23.344;2023-01-08T01:53:56;32.37;;;15.20;;
12218;SDS011;6172;42.646;23.344;2023-01-08T01:56:24;27.17;;;14.13;;
12218;SDS011;6172;42.646;23.344;2023-01-08T01:58:53;37.13;;;15.90;;
12218;SDS011;6172;42.646;23.344;2023-01-08T02:01:21;37.93;;;14.83;;
12218;SDS011;6172;42.646;23.344;2023-01-08T02:03:50;31.67;;;15.83;;
12218;SDS011;6172;42.646;23.344;2023-01-08T02:06:18;30.33;;;15.50;;
12218;SDS011;6172;42.646;23.344;2023-01-08T02:08:59;30.63;;;15.40;;
12218;SDS011;6172;42.646;23.344;2023-01-08T02:11:30;26.03;;;14.07;;
12218;SDS011;6172;42.646;23.344;2023-01-08T02:14:05;31.70;;;15.67;;
12218;SDS011;6172;42.646;23.344;2023-01-08T02:16:40;30.03;;;16.00;;
12218;SDS011;6172;42.646;23.344;2023-01-08T02:19:13;33.93;;;15.93;;
12218;SDS011;6172;42.646;23.344;2023-01-08T02:21:50;31.17;;;15.20;;
12218;SDS011;6172;42.646;23.344;2023-01-08T02:24:27;28.97;;;16.17;;
12218;SDS011;6172;42.646;23.344;2023-01-08T02:27:08;29.00;;;15.07;;
12218;SDS011;6172;42.646;23.344;2023-01-08T02:29:36;30.53;;;15.20;;
12218;SDS011;6172;42.646;23.344;2023-01-08T02:32:04;32.13;;;16.73;;
12218;SDS011;6172;42.646;23.344;2023-01-08T02:34:31;32.00;;;15.20;;
12218;SDS011;6172;42.646;23.344;2023-01-08T02:36:58;35.10;;;15.67;;
12218;SDS011;6172;42.646;23.344;2023-01-08T02:42:22;30.17;;;15.40;;
12218;SDS011;6172;42.646;23.344;2023-01-08T02:44:55;29.43;;;14.43;;
12218;SDS011;6172;42.646;23.344;2023-01-08T02:47:29;29.90;;;15.90;;
12218;SDS011;6172;42.646;23.344;2023-01-08T02:50:07;32.83;;;16.03;;
12218;SDS011;6172;42.646;23.344;2023-01-08T02:52:41;27.13;;;15.70;;
12218;SDS011;6172;42.646;23.344;2023-01-08T02:55:15;30.70;;;15.83;;
12218;SDS011;6172;42.646;23.344;2023-01-08T02:57:47;33.47;;;17.37;;
12218;SDS011;6172;42.646;23.344;2023-01-08T03:00:14;31.13;;;16.77;;
12218;SDS011;6172;42.646;23.344;2023-01-08T03:02:42;32.50;;;16.43;;
12218;SDS011;6172;42.646;23.344;2023-01-08T03:05:12;30.60;;;16.20;;
12218;SDS011;6172;42.646;23.344;2023-01-08T03:07:46;29.57;;;16.33;;
12218;SDS011;6172;42.646;23.344;2023-01-08T03:10:13;35.43;;;16.83;;
12218;SDS011;6172;42.646;23.344;2023-01-08T03:12:43;28.13;;;16.17;;
12218;SDS011;6172;42.646;23.344;2023-01-08T03:15:15;32.90;;;15.30;;
12218;SDS011;6172;42.646;23.344;2023-01-08T03:17:49;27.33;;;14.43;;
12218;SDS011;6172;42.646;23.344;2023-01-08T03:20:20;29.90;;;14.50;;
12218;SDS011;6172;42.646;23.344;2023-01-08T03:22:51;26.37;;;14.87;;
12218;SDS011;6172;42.646;23.344;2023-01-08T03:25:22;34.33;;;14.93;;
12218;SDS011;6172;42.646;23.344;2023-01-08T03:27:53;27.67;;;15.07;;
12218;SDS011;6172;42.646;23.344;2023-01-08T03:30:26;27.10;;;14.43;;
12218;SDS011;6172;42.646;23.344;2023-01-08T03:32:56;26.80;;;14.40;;
12218;SDS011;6172;42.646;23.344;2023-01-08T03:35:25;26.40;;;14.57;;
12218;SDS011;6172;42.646;23.344;2023-01-08T03:37:55;24.40;;;14.07;;
12218;SDS011;6172;42.646;23.344;2023-01-08T03:40:27;26.57;;;15.20;;
12218;SDS011;6172;42.646;23.344;2023-01-08T03:43:00;25.47;;;14.37;;
12218;SDS011;6172;42.646;23.344;2023-01-08T03:45:29;29.43;;;16.30;;
12218;SDS011;6172;42.646;23.344;2023-01-08T03:47:57;31.07;;;15.03;;
12218;SDS011;6172;42.646;23.344;2023-01-08T03:50:27;32.07;;;15.70;;
12218;SDS011;6172;42.646;23.344;2023-01-08T03:52:57;24.47;;;14.63;;
12218;SDS011;6172;42.646;23.344;2023-01-08T03:55:23;29.67;;;15.20;;
12218;SDS011;6172;42.646;23.344;2023-01-08T03:57:50;24.83;;;14.63;;
12218;SDS011;6172;42.646;23.344;2023-01-08T04:00:17;28.50;;;15.87;;
12218;SDS011;6172;42.646;23.344;2023-01-08T04:02:46;30.10;;;15.07;;
12218;SDS011;6172;42.646;23.344;2023-01-08T04:05:13;27.53;;;15.37;;
12218;SDS011;6172;42.646;23.344;2023-01-08T04:07:40;26.83;;;15.30;;
12218;SDS011;6172;42.646;23.344;2023-01-08T04:10:07;29.40;;;15.53;;
12218;SDS011;6172;42.646;23.344;2023-01-08T04:12:35;28.97;;;15.23;;
12218;SDS011;6172;42.646;23.344;2023-01-08T04:15:03;30.67;;;15.40;;
12218;SDS011;6172;42.646;23.344;2023-01-08T04:17:31;29.47;;;15.90;;
12218;SDS011;6172;42.646;23.344;2023-01-08T04:20:00;35.57;;;15.73;;
12218;SDS011;6172;42.646;23.344;2023-01-08T04:22:27;29.80;;;15.37;;
12218;SDS011;6172;42.646;23.344;2023-01-08T04:24:53;30.47;;;16.07;;
12218;SDS011;6172;42.646;23.344;2023-01-08T04:27:20;26.73;;;14.63;;
12218;SDS011;6172;42.646;23.344;2023-01-08T04:29:47;28.83;;;15.00;;
12218;SDS011;6172;42.646;23.344;2023-01-08T04:32:14;27.63;;;15.13;;
12218;SDS011;6172;42.646;23.344;2023-01-08T04:34:42;25.40;;;14.33;;
12218;SDS011;6172;42.646;23.344;2023-01-08T04:37:10;29.03;;;15.43;;
12218;SDS011;6172;42.646;23.344;2023-01-08T04:39:37;25.93;;;13.70;;
12218;SDS011;6172;42.646;23.344;2023-01-08T04:42:04;26.07;;;14.07;;
12218;SDS011;6172;42.646;23.344;2023-01-08T04:44:31;24.70;;;14.03;;
12218;SDS011;6172;42.646;23.344;2023-01-08T04:46:58;24.93;;;13.60;;
12218;SDS011;6172;42.646;23.344;2023-01-08T04:49:25;26.87;;;13.60;;
12218;SDS011;6172;42.646;23.344;2023-01-08T04:51:52;21.33;;;12.93;;
12218;SDS011;6172;42.646;23.344;2023-01-08T04:54:20;24.83;;;12.97;;
12218;SDS011;6172;42.646;23.344;2023-01-08T04:56:48;22.93;;;12.63;;
12218;SDS011;6172;42.646;23.344;2023-01-08T04:59:16;24.27;;;12.60;;
12218;SDS011;6172;42.646;23.344;2023-01-08T05:01:43;21.43;;;12.60;;
12218;SDS011;6172;42.646;23.344;2023-01-08T05:04:10;27.63;;;14.17;;
12218;SDS011;6172;42.646;23.344;2023-01-08T05:06:37;27.50;;;14.40;;
12218;SDS011;6172;42.646;23.344;2023-01-08T05:09:04;31.83;;;14.77;;
12218;SDS011;6172;42.646;23.344;2023-01-08T05:11:33;28.50;;;15.03;;
12218;SDS011;6172;42.646;23.344;2023-01-08T05:14:01;25.73;;;13.47;;
12218;SDS011;6172;42.646;23.344;2023-01-08T05:16:28;22.63;;;13.73;;
12218;SDS011;6172;42.646;23.344;2023-01-08T05:18:56;31.40;;;15.30;;
12218;SDS011;6172;42.646;23.344;2023-01-08T05:21:24;25.67;;;14.07;;
12218;SDS011;6172;42.646;23.344;2023-01-08T05:23:51;24.90;;;11.33;;
12218;SDS011;6172;42.646;23.344;2023-01-08T05:26:18;23.43;;;12.70;;
12218;SDS011;6172;42.646;23.344;2023-01-08T05:28:47;24.97;;;10.63;;
12218;SDS011;6172;42.646;23.344;2023-01-08T05:31:14;26.80;;;12.63;;
12218;SDS011;6172;42.646;23.344;2023-01-08T05:33:41;31.40;;;12.93;;
12218;SDS011;6172;42.646;23.344;2023-01-08T05:36:09;27.37;;;11.60;;
12218;SDS011;6172;42.646;23.344;2023-01-08T05:38:37;28.60;;;11.10;;
12218;SDS011;6172;42.646;23.344;2023-01-08T05:41:05;24.30;;;11.80;;
12218;SDS011;6172;42.646;23.344;2023-01-08T05:43:33;26.03;;;11.77;;
12218;SDS011;6172;42.646;23.344;2023-01-08T05:46:02;19.40;;;10.23;;
12218;SDS011;6172;42.646;23.344;2023-01-08T05:48:30;23.73;;;12.60;;
12218;SDS011;6172;42.646;23.344;2023-01-08T05:50:59;16.87;;;9.67;;
12218;SDS011;6172;42.646;23.344;2023-01-08T05:53:26;13.73;;;7.53;;
12218;SDS011;6172;42.646;23.344;2023-01-08T05:55:56;11.83;;;7.03;;
12218;SDS011;6172;42.646;23.344;2023-01-08T05:58:25;12.10;;;6.77;;
12218;SDS011;6172;42.646;23.344;2023-01-08T06:00:52;12.77;;;6.53;;
12218;SDS011;6172;42.646;23.344;2023-01-08T06:03:21;8.77;;;5.30;;
12218;SDS011;6172;42.646;23.344;2023-01-08T06:05:49;12.47;;;6.63;;
12218;SDS011;6172;42.646;23.344;2023-01-08T06:08:16;9.93;;;6.47;;
12218;SDS011;6172;42.646;23.344;2023-01-08T06:10:44;12.43;;;6.53;;
12218;SDS011;6172;42.646;23.344;2023-01-08T06:13:11;10.80;;;6.33;;
12218;SDS011;6172;42.646;23.344;2023-01-08T06:15:38;13.47;;;7.13;;
12218;SDS011;6172;42.646;23.344;2023-01-08T06:18:05;11.37;;;6.23;;
12218;SDS011;6172;42.646;23.344;2023-01-08T06:20:34;7.73;;;4.30;;
12218;SDS011;6172;42.646;23.344;2023-01-08T06:23:01;10.47;;;4.40;;
12218;SDS011;6172;42.646;23.344;2023-01-08T06:25:28;9.00;;;4.80;;
12218;SDS011;6172;42.646;23.344;2023-01-08T06:27:55;10.90;;;5.13;;
12218;SDS011;6172;42.646;23.344;2023-01-08T06:30:22;8.90;;;4.90;;
12218;SDS011;6172;42.646;23.344;2023-01-08T06:32:49;12.37;;;6.17;;
12218;SDS011;6172;42.646;23.344;2023-01-08T06:35:20;13.00;;;5.87;;
12218;SDS011;6172;42.646;23.344;2023-01-08T06:37:49;11.50;;;6.33;;
12218;SDS011;6172;42.646;23.344;2023-01-08T06:40:16;13.83;;;6.53;;
12218;SDS011;6172;42.646;23.344;2023-01-08T06:42:43;11.90;;;6.00;;
12218;SDS011;6172;42.646;23.344;2023-01-08T06:45:10;10.87;;;5.43;;
12218;SDS011;6172;42.646;23.344;2023-01-08T06:47:37;10.23;;;5.63;;
12218;SDS011;6172;42.646;23.344;2023-01-08T06:50:04;14.87;;;6.00;;
12218;SDS011;6172;42.646;23.344;2023-01-08T06:52:32;10.27;;;6.63;;
12218;SDS011;6172;42.646;23.344;2023-01-08T06:55:00;15.90;;;9.07;;
12218;SDS011;6172;42.646;23.344;2023-01-08T06:57:29;19.90;;;12.40;;
12218;SDS011;6172;42.646;23.344;2023-01-08T06:59:56;23.83;;;12.93;;
12218;SDS011;6172;42.646;23.344;2023-01-08T07:02:23;19.90;;;10.30;;
12218;SDS011;6172;42.646;23.344;2023-01-08T07:04:50;11.60;;;7.73;;
12218;SDS011;6172;42.646;23.344;2023-01-08T07:07:16;12.03;;;7.40;;
12218;SDS011;6172;42.646;23.344;2023-01-08T07:09:43;11.17;;;6.50;;
12218;SDS011;6172;42.646;23.344;2023-01-08T07:12:12;10.77;;;5.87;;
12218;SDS011;6172;42.646;23.344;2023-01-08T07:14:40;15.07;;;5.57;;
12218;SDS011;6172;42.646;23.344;2023-01-08T07:17:07;10.20;;;5.80;;
12218;SDS011;6172;42.646;23.344;2023-01-08T07:19:35;11.70;;;5.87;;
12218;SDS011;6172;42.646;23.344;2023-01-08T07:22:02;10.73;;;6.03;;
12218;SDS011;6172;42.646;23.344;2023-01-08T07:24:31;12.27;;;5.80;;
12218;SDS011;6172;42.646;23.344;2023-01-08T07:26:58;13.00;;;6.47;;
12218;SDS011;6172;42.646;23.344;2023-01-08T07:29:27;17.33;;;6.70;;
12218;SDS011;6172;42.646;23.344;2023-01-08T07:31:54;14.33;;;7.93;;
12218;SDS011;6172;42.646;23.344;2023-01-08T07:34:21;20.30;;;8.57;;
12218;SDS011;6172;42.646;23.344;2023-01-08T07:36:48;12.77;;;7.07;;
12218;SDS011;6172;42.646;23.344;2023-01-08T07:39:16;12.40;;;6.63;;
12218;SDS011;6172;42.646;23.344;2023-01-08T07:41:42;7.70;;;5.37;;
12218;SDS011;6172;42.646;23.344;2023-01-08T07:44:10;6.00;;;4.17;;
12218;SDS011;6172;42.646;23.344;2023-01-08T07:46:38;7.30;;;4.23;;
12218;SDS011;6172;42.646;23.344;2023-01-08T07:49:05;5.70;;;3.73;;
12218;SDS011;6172;42.646;23.344;2023-01-08T07:51:32;5.47;;;3.63;;
12218;SDS011;6172;42.646;23.344;2023-01-08T07:54:00;8.00;;;3.80;;
12218;SDS011;6172;42.646;23.344;2023-01-08T07:56:27;5.07;;;3.60;;
12218;SDS011;6172;42.646;23.344;2023-01-08T07:58:54;6.87;;;4.13;;
12218;SDS011;6172;42.646;23.344;2023-01-08T08:01:21;9.10;;;5.00;;
12218;SDS011;6172;42.646;23.344;2023-01-08T08:03:51;7.47;;;4.80;;
12218;SDS011;6172;42.646;23.344;2023-01-08T08:06:18;9.17;;;6.50;;
12218;SDS011;6172;42.646;23.344;2023-01-08T08:08:45;13.50;;;9.10;;
12218;SDS011;6172;42.646;23.344;2023-01-08T08:11:13;16.00;;;9.03;;
12218;SDS011;6172;42.646;23.344;2023-01-08T08:13:40;14.73;;;9.13;;
12218;SDS011;6172;42.646;23.344;2023-01-08T08:16:09;14.67;;;9.23;;
12218;SDS011;6172;42.646;23.344;2023-01-08T08:18:37;12.90;;;8.97;;
12218;SDS011;6172;42.646;23.344;2023-01-08T08:21:06;11.83;;;8.40;;
12218;SDS011;6172;42.646;23.344;2023-01-08T08:23:33;14.27;;;8.50;;
12218;SDS011;6172;42.646;23.344;2023-01-08T08:26:01;9.97;;;6.17;;
12218;SDS011;6172;42.646;23.344;2023-01-08T08:28:29;13.13;;;5.33;;
12218;SDS011;6172;42.646;23.344;2023-01-08T08:30:56;8.67;;;5.03;;
12218;SDS011;6172;42.646;23.344;2023-01-08T08:33:23;8.70;;;5.30;;
12218;SDS011;6172;42.646;23.344;2023-01-08T08:35:51;8.37;;;5.43;;
12218;SDS011;6172;42.646;23.344;2023-01-08T08:38:20;7.93;;;4.90;;
12218;SDS011;6172;42.646;23.344;2023-01-08T08:40:47;9.77;;;5.80;;
12218;SDS011;6172;42.646;23.344;2023-01-08T08:43:13;10.17;;;6.37;;
12218;SDS011;6172;42.646;23.344;2023-01-08T08:45:42;9.43;;;6.30;;
12218;SDS011;6172;42.646;23.344;2023-01-08T08:48:09;13.30;;;8.33;;
12218;SDS011;6172;42.646;23.344;2023-01-08T08:50:36;12.50;;;8.33;;
12218;SDS011;6172;42.646;23.344;2023-01-08T08:53:04;11.30;;;7.20;;
12218;SDS011;6172;42.646;23.344;2023-01-08T08:55:33;16.43;;;10.10;;
12218;SDS011;6172;42.646;23.344;2023-01-08T08:58:01;15.57;;;9.53;;
12218;SDS011;6172;42.646;23.344;2023-01-08T09:00:30;16.67;;;10.20;;
12218;SDS011;6172;42.646;23.344;2023-01-08T09:02:57;18.10;;;11.57;;
12218;SDS011;6172;42.646;23.344;2023-01-08T09:05:25;19.53;;;12.80;;
12218;SDS011;6172;42.646;23.344;2023-01-08T09:07:51;21.50;;;11.73;;
12218;SDS011;6172;42.646;23.344;2023-01-08T09:10:19;23.20;;;14.50;;
12218;SDS011;6172;42.646;23.344;2023-01-08T09:12:47;22.47;;;15.37;;
12218;SDS011;6172;42.646;23.344;2023-01-08T09:15:14;29.87;;;19.97;;
12218;SDS011;6172;42.646;23.344;2023-01-08T09:17:42;31.03;;;19.93;;
12218;SDS011;6172;42.646;23.344;2023-01-08T09:20:09;27.53;;;19.03;;
12218;SDS011;6172;42.646;23.344;2023-01-08T09:22:36;29.33;;;18.73;;
12218;SDS011;6172;42.646;23.344;2023-01-08T09:25:03;32.93;;;19.23;;
12218;SDS011;6172;42.646;23.344;2023-01-08T09:27:31;26.40;;;18.33;;
12218;SDS011;6172;42.646;23.344;2023-01-08T09:29:59;31.70;;;18.43;;
12218;SDS011;6172;42.646;23.344;2023-01-08T09:32:26;28.10;;;18.20;;
12218;SDS011;6172;42.646;23.344;2023-01-08T09:34:53;35.70;;;19.83;;
12218;SDS011;6172;42.646;23.344;2023-01-08T09:37:20;25.07;;;17.67;;
12218;SDS011;6172;42.646;23.344;2023-01-08T09:39:48;23.23;;;16.33;;
12218;SDS011;6172;42.646;23.344;2023-01-08T09:42:16;27.83;;;18.10;;
12218;SDS011;6172;42.646;23.344;2023-01-08T09:44:47;30.03;;;17.70;;
12218;SDS011;6172;42.646;23.344;2023-01-08T09:47:21;26.77;;;17.87;;
12218;SDS011;6172;42.646;23.344;2023-01-08T09:49:53;22.67;;;15.27;;
12218;SDS011;6172;42.646;23.344;2023-01-08T09:52:24;23.07;;;15.80;;
12218;SDS011;6172;42.646;23.344;2023-01-08T09:54:52;27.17;;;16.37;;
12218;SDS011;6172;42.646;23.344;2023-01-08T09:57:20;28.60;;;16.40;;
12218;SDS011;6172;42.646;23.344;2023-01-08T09:59:48;25.93;;;16.23;;
12218;SDS011;6172;42.646;23.344;2023-01-08T10:02:17;25.37;;;16.70;;
12218;SDS011;6172;42.646;23.344;2023-01-08T10:04:47;25.17;;;16.77;;
12218;SDS011;6172;42.646;23.344;2023-01-08T10:07:21;25.27;;;16.10;;
12218;SDS011;6172;42.646;23.344;2023-01-08T10:09:50;28.17;;;17.33;;
12218;SDS011;6172;42.646;23.344;2023-01-08T10:12:23;23.33;;;16.27;;
12218;SDS011;6172;42.646;23.344;2023-01-08T10:14:54;25.63;;;16.37;;
12218;SDS011;6172;42.646;23.344;2023-01-08T10:17:25;26.27;;;15.93;;
12218;SDS011;6172;42.646;23.344;2023-01-08T10:19:58;23.00;;;14.70;;
12218;SDS011;6172;42.646;23.344;2023-01-08T10:22:27;22.80;;;15.53;;
12218;SDS011;6172;42.646;23.344;2023-01-08T10:25:08;27.57;;;16.30;;
12218;SDS011;6172;42.646;23.344;2023-01-08T10:27:44;25.90;;;16.80;;
12218;SDS011;6172;42.646;23.344;2023-01-08T10:30:15;21.90;;;14.90;;
12218;SDS011;6172;42.646;23.344;2023-01-08T10:32:47;25.23;;;17.03;;
12218;SDS011;6172;42.646;23.344;2023-01-08T10:35:20;22.00;;;15.27;;
12218;SDS011;6172;42.646;23.344;2023-01-08T10:37:50;22.57;;;15.23;;
12218;SDS011;6172;42.646;23.344;2023-01-08T10:40:21;22.33;;;15.53;;
12218;SDS011;6172;42.646;23.344;2023-01-08T10:42:53;20.57;;;14.93;;
12218;SDS011;6172;42.646;23.344;2023-01-08T10:45:23;23.37;;;15.03;;
12218;SDS011;6172;42.646;23.344;2023-01-08T10:47:54;18.37;;;13.03;;
12218;SDS011;6172;42.646;23.344;2023-01-08T10:50:27;18.50;;;12.33;;
12218;SDS011;6172;42.646;23.344;2023-01-08T10:52:59;17.23;;;12.77;;
12218;SDS011;6172;42.646;23.344;2023-01-08T10:55:27;19.80;;;13.33;;
12218;SDS011;6172;42.646;23.344;2023-01-08T10:57:56;23.53;;;13.30;;
12218;SDS011;6172;42.646;23.344;2023-01-08T11:00:26;22.83;;;13.80;;
12218;SDS011;6172;42.646;23.344;2023-01-08T11:02:55;21.00;;;14.03;;
12218;SDS011;6172;42.646;23.344;2023-01-08T11:05:29;23.30;;;13.83;;
12218;SDS011;6172;42.646;23.344;2023-01-08T11:08:04;20.33;;;13.60;;
12218;SDS011;6172;42.646;23.344;2023-01-08T11:10:33;21.57;;;12.20;;
12218;SDS011;6172;42.646;23.344;2023-01-08T11:13:02;19.53;;;13.43;;
12218;SDS011;6172;42.646;23.344;2023-01-08T11:15:35;22.10;;;13.30;;
12218;SDS011;6172;42.646;23.344;2023-01-08T11:18:04;21.93;;;14.03;;
12218;SDS011;6172;42.646;23.344;2023-01-08T11:20:46;25.00;;;14.87;;
12218;SDS011;6172;42.646;23.344;2023-01-08T11:23:16;19.70;;;13.90;;
12218;SDS011;6172;42.646;23.344;2023-01-08T11:25:47;21.30;;;15.03;;
12218;SDS011;6172;42.646;23.344;2023-01-08T11:28:22;21.07;;;14.07;;
12218;SDS011;6172;42.646;23.344;2023-01-08T11:30:57;20.63;;;13.93;;
12218;SDS011;6172;42.646;23.344;2023-01-08T11:33:31;19.83;;;14.00;;
12218;SDS011;6172;42.646;23.344;2023-01-08T11:36:07;21.70;;;14.13;;
12218;SDS011;6172;42.646;23.344;2023-01-08T11:38:40;22.07;;;13.70;;
12218;SDS011;6172;42.646;23.344;2023-01-08T11:41:13;22.67;;;14.07;;
12218;SDS011;6172;42.646;23.344;2023-01-08T11:43:57;20.50;;;14.37;;
12218;SDS011;6172;42.646;23.344;2023-01-08T11:46:36;20.63;;;13.87;;
12218;SDS011;6172;42.646;23.344;2023-01-08T11:52:16;19.20;;;14.20;;
12218;SDS011;6172;42.646;23.344;2023-01-08T11:55:00;21.23;;;14.60;;
12218;SDS011;6172;42.646;23.344;2023-01-08T11:57:43;22.90;;;15.73;;
12218;SDS011;6172;42.646;23.344;2023-01-08T12:00:28;25.77;;;16.27;;
12218;SDS011;6172;42.646;23.344;2023-01-08T12:03:07;24.87;;;16.93;;
12218;SDS011;6172;42.646;23.344;2023-01-08T12:05:42;26.40;;;17.33;;
12218;SDS011;6172;42.646;23.344;2023-01-08T12:08:20;26.90;;;17.60;;
12218;SDS011;6172;42.646;23.344;2023-01-08T12:10:57;25.10;;;16.40;;
12218;SDS011;6172;42.646;23.344;2023-01-08T12:13:38;22.67;;;17.00;;
12218;SDS011;6172;42.646;23.344;2023-01-08T12:16:35;23.50;;;16.67;;
12218;SDS011;6172;42.646;23.344;2023-01-08T12:19:16;21.20;;;16.27;;
12218;SDS011;6172;42.646;23.344;2023-01-08T12:21:52;25.10;;;16.73;;
12218;SDS011;6172;42.646;23.344;2023-01-08T12:27:33;26.63;;;17.57;;
12218;SDS011;6172;42.646;23.344;2023-01-08T12:30:13;26.80;;;18.20;;
12218;SDS011;6172;42.646;23.344;2023-01-08T12:32:49;27.70;;;18.13;;
12218;SDS011;6172;42.646;23.344;2023-01-08T12:35:22;27.60;;;17.43;;
12218;SDS011;6172;42.646;23.344;2023-01-08T12:37:54;29.23;;;18.60;;
12218;SDS011;6172;42.646;23.344;2023-01-08T12:40:30;28.07;;;18.23;;
12218;SDS011;6172;42.646;23.344;2023-01-08T12:42:59;26.07;;;18.20;;
12218;SDS011;6172;42.646;23.344;2023-01-08T12:45:31;26.13;;;17.23;;
12218;SDS011;6172;42.646;23.344;2023-01-08T12:48:03;25.63;;;18.10;;
12218;SDS011;6172;42.646;23.344;2023-01-08T12:50:40;25.87;;;18.10;;
12218;SDS011;6172;42.646;23.344;2023-01-08T12:53:20;29.83;;;18.80;;
12218;SDS011;6172;42.646;23.344;2023-01-08T12:56:03;29.33;;;19.10;;
12218;SDS011;6172;42.646;23.344;2023-01-08T12:58:38;24.43;;;17.43;;
12218;SDS011;6172;42.646;23.344;2023-01-08T13:01:21;22.93;;;17.23;;
12218;SDS011;6172;42.646;23.344;2023-01-08T13:03:54;26.07;;;17.17;;
12218;SDS011;6172;42.646;23.344;2023-01-08T13:06:24;24.37;;;16.13;;
12218;SDS011;6172;42.646;23.344;2023-01-08T13:08:54;27.37;;;17.00;;
12218;SDS011;6172;42.646;23.344;2023-01-08T13:11:24;22.73;;;15.77;;
12218;SDS011;6172;42.646;23.344;2023-01-08T13:14:00;21.40;;;16.00;;
12218;SDS011;6172;42.646;23.344;2023-01-08T13:16:29;21.77;;;15.50;;
12218;SDS011;6172;42.646;23.344;2023-01-08T13:19:00;24.23;;;15.37;;
12218;SDS011;6172;42.646;23.344;2023-01-08T13:21:29;24.60;;;16.20;;
12218;SDS011;6172;42.646;23.344;2023-01-08T13:23:59;22.33;;;15.73;;
12218;SDS011;6172;42.646;23.344;2023-01-08T13:26:30;26.10;;;16.17;;
12218;SDS011;6172;42.646;23.344;2023-01-08T13:29:05;22.50;;;14.57;;
12218;SDS011;6172;42.646;23.344;2023-01-08T13:31:47;19.93;;;13.63;;
12218;SDS011;6172;42.646;23.344;2023-01-08T13:34:18;21.27;;;14.77;;
12218;SDS011;6172;42.646;23.344;2023-01-08T13:36:54;25.00;;;16.23;;
12218;SDS011;6172;42.646;23.344;2023-01-08T13:39:23;21.20;;;14.83;;
12218;SDS011;6172;42.646;23.344;2023-01-08T13:41:59;22.53;;;16.20;;
12218;SDS011;6172;42.646;23.344;2023-01-08T13:44:31;22.00;;;15.43;;
12218;SDS011;6172;42.646;23.344;2023-01-08T13:47:03;24.70;;;15.77;;
12218;SDS011;6172;42.646;23.344;2023-01-08T13:49:41;22.40;;;14.97;;
12218;SDS011;6172;42.646;23.344;2023-01-08T13:52:25;20.80;;;14.47;;
12218;SDS011;6172;42.646;23.344;2023-01-08T13:54:55;23.20;;;15.37;;
12218;SDS011;6172;42.646;23.344;2023-01-08T13:57:24;22.00;;;15.40;;
12218;SDS011;6172;42.646;23.344;2023-01-08T13:59:51;23.53;;;15.20;;
12218;SDS011;6172;42.646;23.344;2023-01-08T14:02:22;20.37;;;14.63;;
12218;SDS011;6172;42.646;23.344;2023-01-08T14:04:54;22.30;;;15.27;;
12218;SDS011;6172;42.646;23.344;2023-01-08T14:07:22;27.03;;;15.23;;
12218;SDS011;6172;42.646;23.344;2023-01-08T14:09:50;25.50;;;15.67;;
12218;SDS011;6172;42.646;23.344;2023-01-08T14:12:17;23.33;;;15.97;;
12218;SDS011;6172;42.646;23.344;2023-01-08T14:14:48;28.60;;;17.47;;
12218;SDS011;6172;42.646;23.344;2023-01-08T14:17:17;35.17;;;19.30;;
12218;SDS011;6172;42.646;23.344;2023-01-08T14:19:47;32.10;;;18.13;;
12218;SDS011;6172;42.646;23.344;2023-01-08T14:22:16;31.87;;;17.50;;
12218;SDS011;6172;42.646;23.344;2023-01-08T14:24:46;28.60;;;17.73;;
12218;SDS011;6172;42.646;23.344;2023-01-08T14:27:19;32.23;;;16.57;;
12218;SDS011;6172;42.646;23.344;2023-01-08T14:29:49;32.20;;;17.23;;
12218;SDS011;6172;42.646;23.344;2023-01-08T14:32:17;25.70;;;15.73;;
12218;SDS011;6172;42.646;23.344;2023-01-08T14:34:45;25.63;;;15.80;;
12218;SDS011;6172;42.646;23.344;2023-01-08T14:37:13;28.13;;;16.50;;
12218;SDS011;6172;42.646;23.344;2023-01-08T14:39:42;34.00;;;17.37;;
12218;SDS011;6172;42.646;23.344;2023-01-08T14:42:12;32.00;;;17.93;;
12218;SDS011;6172;42.646;23.344;2023-01-08T14:45:02;32.93;;;18.70;;
12218;SDS011;6172;42.646;23.344;2023-01-08T14:47:34;31.70;;;18.03;;
12218;SDS011;6172;42.646;23.344;2023-01-08T14:50:04;32.90;;;18.93;;